sensor_id;sensor_type;location;lat;lon;timestamp;pressure;altitude;pressure_sealevel;temperature;humidity
80699;BME280;70062;51.658;5.658;2024-01-27T00:01:30;103295.12;;;21.26;32.51
80699;BME280;70062;51.658;5.658;2024-01-27T00:03:55;103297.58;;;21.30;32.73
80699;BME280;70062;51.658;5.658;2024-01-27T00:06:21;103296.79;;;21.53;32.66
80699;BME280;70062;51.658;5.658;2024-01-27T00:08:46;103298.27;;;21.71;32.50
80699;BME280;70062;51.658;5.658;2024-01-27T00:11:12;103300.95;;;21.81;32.16
80699;BME280;70062;51.658;5.658;2024-01-27T00:13:37;103297.68;;;21.82;32.07
80699;BME280;70062;51.658;5.658;2024-01-27T00:16:02;103296.48;;;21.78;31.95
80699;BME280;70062;51.658;5.658;2024-01-27T00:18:28;103295.05;;;21.69;32.13
80699;BME280;70062;51.658;5.658;2024-01-27T00:20:53;103296.95;;;21.56;32.16
80699;BME280;70062;51.658;5.658;2024-01-27T00:23:18;103300.11;;;21.36;32.29
80699;BME280;70062;51.658;5.658;2024-01-27T00:25:44;103305.94;;;21.11;32.65
80699;BME280;70062;51.658;5.658;2024-01-27T00:28:09;103305.69;;;21.05;33.01
80699;BME280;70062;51.658;5.658;2024-01-27T00:30:34;103309.66;;;21.27;32.88
80699;BME280;70062;51.658;5.658;2024-01-27T00:33:00;103312.59;;;21.50;32.66
80699;BME280;70062;51.658;5.658;2024-01-27T00:35:25;103318.98;;;21.65;32.40
80699;BME280;70062;51.658;5.658;2024-01-27T00:37:50;103323.59;;;21.70;32.21
80699;BME280;70062;51.658;5.658;2024-01-27T00:40:16;103321.61;;;21.69;32.23
80699;BME280;70062;51.658;5.658;2024-01-27T00:42:41;103318.34;;;21.62;32.11
80699;BME280;70062;51.658;5.658;2024-01-27T00:45:07;103317.18;;;21.52;32.31
80699;BME280;70062;51.658;5.658;2024-01-27T00:47:32;103316.64;;;21.35;32.39
80699;BME280;70062;51.658;5.658;2024-01-27T00:49:58;103314.27;;;21.10;32.51
80699;BME280;70062;51.658;5.658;2024-01-27T00:52:23;103313.46;;;20.96;33.03
80699;BME280;70062;51.658;5.658;2024-01-27T00:54:48;103315.09;;;21.13;33.07
80699;BME280;70062;51.658;5.658;2024-01-27T00:57:14;103311.56;;;21.35;32.86
80699;BME280;70062;51.658;5.658;2024-01-27T00:59:39;103313.33;;;21.47;32.64
80699;BME280;70062;51.658;5.658;2024-01-27T01:02:06;103319.19;;;21.65;32.54
80699;BME280;70062;51.658;5.658;2024-01-27T01:04:31;103325.18;;;22.07;32.22
80699;BME280;70062;51.658;5.658;2024-01-27T01:06:57;103320.69;;;22.65;31.70
80699;BME280;70062;51.658;5.658;2024-01-27T01:09:22;103318.36;;;23.14;30.83
80699;BME280;70062;51.658;5.658;2024-01-27T01:11:48;103320.05;;;23.46;30.27
80699;BME280;70062;51.658;5.658;2024-01-27T01:14:13;103320.52;;;23.63;29.93
80699;BME280;70062;51.658;5.658;2024-01-27T01:16:40;103324.45;;;23.71;29.51
80699;BME280;70062;51.658;5.658;2024-01-27T01:19:06;103328.55;;;23.67;29.37
80699;BME280;70062;51.658;5.658;2024-01-27T01:21:31;103323.12;;;23.58;29.37
80699;BME280;70062;51.658;5.658;2024-01-27T01:23:56;103321.47;;;23.41;29.26
80699;BME280;70062;51.658;5.658;2024-01-27T01:26:22;103329.06;;;23.23;29.46
80699;BME280;70062;51.658;5.658;2024-01-27T01:28:47;103326.72;;;23.02;29.87
80699;BME280;70062;51.658;5.658;2024-01-27T01:31:13;103325.88;;;22.81;29.92
80699;BME280;70062;51.658;5.658;2024-01-27T01:33:38;103322.44;;;22.56;30.02
80699;BME280;70062;51.658;5.658;2024-01-27T01:36:04;103319.39;;;22.33;30.38
80699;BME280;70062;51.658;5.658;2024-01-27T01:38:29;103317.88;;;22.09;30.52
80699;BME280;70062;51.658;5.658;2024-01-27T01:40:54;103324.36;;;21.84;30.88
80699;BME280;70062;51.658;5.658;2024-01-27T01:43:20;103325.27;;;21.60;31.26
80699;BME280;70062;51.658;5.658;2024-01-27T01:45:46;103327.04;;;21.37;31.49
80699;BME280;70062;51.658;5.658;2024-01-27T01:48:11;103328.86;;;21.12;31.90
80699;BME280;70062;51.658;5.658;2024-01-27T01:50:36;103330.97;;;20.82;32.26
80699;BME280;70062;51.658;5.658;2024-01-27T01:53:02;103336.60;;;20.69;32.75
80699;BME280;70062;51.658;5.658;2024-01-27T01:55:28;103338.84;;;20.86;32.85
80699;BME280;70062;51.658;5.658;2024-01-27T01:57:53;103333.88;;;21.22;32.73
80699;BME280;70062;51.658;5.658;2024-01-27T02:00:19;103332.31;;;21.78;32.28
80699;BME280;70062;51.658;5.658;2024-01-27T02:02:44;103326.30;;;22.39;31.56
80699;BME280;70062;51.658;5.658;2024-01-27T02:05:13;103327.58;;;22.88;30.84
80699;BME280;70062;51.658;5.658;2024-01-27T02:07:39;103330.02;;;23.21;30.29
80699;BME280;70062;51.658;5.658;2024-01-27T02:10:06;103330.94;;;23.37;29.71
80699;BME280;70062;51.658;5.658;2024-01-27T02:12:37;103325.90;;;23.43;29.52
80699;BME280;70062;51.658;5.658;2024-01-27T02:15:03;103320.89;;;23.40;29.36
80699;BME280;70062;51.658;5.658;2024-01-27T02:17:28;103323.73;;;23.31;29.42
80699;BME280;70062;51.658;5.658;2024-01-27T02:19:54;103329.33;;;23.16;29.44
80699;BME280;70062;51.658;5.658;2024-01-27T02:22:19;103325.73;;;22.99;29.65
80699;BME280;70062;51.658;5.658;2024-01-27T02:24:44;103329.31;;;22.70;29.83
80699;BME280;70062;51.658;5.658;2024-01-27T02:27:11;103331.97;;;22.36;30.20
80699;BME280;70062;51.658;5.658;2024-01-27T02:29:37;103334.33;;;22.29;30.49
80699;BME280;70062;51.658;5.658;2024-01-27T02:32:02;103338.63;;;22.41;30.49
80699;BME280;70062;51.658;5.658;2024-01-27T02:34:28;103337.81;;;22.51;30.36
80699;BME280;70062;51.658;5.658;2024-01-27T02:36:53;103331.63;;;22.54;30.31
80699;BME280;70062;51.658;5.658;2024-01-27T02:39:18;103335.52;;;22.51;30.25
80699;BME280;70062;51.658;5.658;2024-01-27T02:41:44;103341.13;;;22.42;30.21
80699;BME280;70062;51.658;5.658;2024-01-27T02:45:56;103339.02;;;22.16;30.47
80699;BME280;70062;51.658;5.658;2024-01-27T02:48:22;103342.50;;;21.95;30.93
80699;BME280;70062;51.658;5.658;2024-01-27T02:50:47;103342.00;;;22.21;30.81
80699;BME280;70062;51.658;5.658;2024-01-27T02:53:12;103341.34;;;22.60;30.58
80699;BME280;70062;51.658;5.658;2024-01-27T02:55:38;103332.77;;;22.91;29.99
80699;BME280;70062;51.658;5.658;2024-01-27T02:58:04;103329.18;;;23.07;29.82
80699;BME280;70062;51.658;5.658;2024-01-27T03:00:30;103328.06;;;23.10;29.71
80699;BME280;70062;51.658;5.658;2024-01-27T03:02:55;103334.10;;;23.08;29.41
80699;BME280;70062;51.658;5.658;2024-01-27T03:05:23;103336.36;;;22.98;29.39
80699;BME280;70062;51.658;5.658;2024-01-27T03:07:49;103336.30;;;22.83;29.51
80699;BME280;70062;51.658;5.658;2024-01-27T03:10:14;103340.88;;;22.62;29.69
80699;BME280;70062;51.658;5.658;2024-01-27T03:12:40;103343.46;;;22.39;29.94
80699;BME280;70062;51.658;5.658;2024-01-27T03:15:05;103340.39;;;22.16;30.15
80699;BME280;70062;51.658;5.658;2024-01-27T03:17:31;103334.10;;;21.91;30.41
80699;BME280;70062;51.658;5.658;2024-01-27T03:19:57;103334.59;;;21.62;30.58
80699;BME280;70062;51.658;5.658;2024-01-27T03:22:22;103334.20;;;21.26;31.17
80699;BME280;70062;51.658;5.658;2024-01-27T03:24:47;103329.16;;;21.19;31.58
80699;BME280;70062;51.658;5.658;2024-01-27T03:27:13;103330.81;;;21.35;31.71
80699;BME280;70062;51.658;5.658;2024-01-27T03:29:39;103334.23;;;21.54;31.43
80699;BME280;70062;51.658;5.658;2024-01-27T03:32:04;103330.40;;;21.62;31.33
80699;BME280;70062;51.658;5.658;2024-01-27T03:34:30;103336.94;;;21.63;31.04
80699;BME280;70062;51.658;5.658;2024-01-27T03:36:56;103336.58;;;21.59;31.21
80699;BME280;70062;51.658;5.658;2024-01-27T03:39:21;103332.25;;;21.48;31.22
80699;BME280;70062;51.658;5.658;2024-01-27T03:41:46;103340.79;;;21.35;31.30
80699;BME280;70062;51.658;5.658;2024-01-27T03:44:12;103333.92;;;21.19;31.40
80699;BME280;70062;51.658;5.658;2024-01-27T03:46:37;103332.57;;;21.01;31.70
80699;BME280;70062;51.658;5.658;2024-01-27T03:49:04;103336.11;;;20.80;31.98
80699;BME280;70062;51.658;5.658;2024-01-27T03:51:30;103346.75;;;20.55;32.28
80699;BME280;70062;51.658;5.658;2024-01-27T03:53:55;103348.84;;;20.34;32.70
80699;BME280;70062;51.658;5.658;2024-01-27T03:56:20;103354.23;;;20.47;33.00
80699;BME280;70062;51.658;5.658;2024-01-27T03:58:46;103346.94;;;20.91;32.79
80699;BME280;70062;51.658;5.658;2024-01-27T04:01:11;103349.84;;;21.55;32.32
80699;BME280;70062;51.658;5.658;2024-01-27T04:03:36;103351.02;;;22.14;31.44
80699;BME280;70062;51.658;5.658;2024-01-27T04:06:02;103345.61;;;22.57;30.65
80699;BME280;70062;51.658;5.658;2024-01-27T04:08:30;103354.11;;;22.86;30.28
80699;BME280;70062;51.658;5.658;2024-01-27T04:10:55;103353.08;;;23.00;29.82
80699;BME280;70062;51.658;5.658;2024-01-27T04:13:20;103350.42;;;23.04;29.51
80699;BME280;70062;51.658;5.658;2024-01-27T04:15:46;103355.69;;;23.00;29.51
80699;BME280;70062;51.658;5.658;2024-01-27T04:18:11;103360.70;;;22.89;29.33
80699;BME280;70062;51.658;5.658;2024-01-27T04:20:37;103352.55;;;22.73;29.34
80699;BME280;70062;51.658;5.658;2024-01-27T04:23:03;103359.89;;;22.51;29.49
80699;BME280;70062;51.658;5.658;2024-01-27T04:25:29;103357.81;;;22.18;29.81
80699;BME280;70062;51.658;5.658;2024-01-27T04:27:54;103354.73;;;21.91;30.37
80699;BME280;70062;51.658;5.658;2024-01-27T04:30:20;103358.38;;;21.95;30.45
80699;BME280;70062;51.658;5.658;2024-01-27T04:32:45;103358.09;;;22.08;30.34
80699;BME280;70062;51.658;5.658;2024-01-27T04:35:11;103358.70;;;22.14;30.27
80699;BME280;70062;51.658;5.658;2024-01-27T04:37:37;103359.91;;;22.14;30.14
80699;BME280;70062;51.658;5.658;2024-01-27T04:40:06;103358.48;;;22.09;30.21
80699;BME280;70062;51.658;5.658;2024-01-27T04:42:35;103354.39;;;21.96;30.17
80699;BME280;70062;51.658;5.658;2024-01-27T04:45:03;103366.36;;;21.77;30.40
80699;BME280;70062;51.658;5.658;2024-01-27T04:47:30;103360.41;;;21.49;30.79
80699;BME280;70062;51.658;5.658;2024-01-27T04:49:55;103355.31;;;21.40;31.04
80699;BME280;70062;51.658;5.658;2024-01-27T04:52:22;103364.48;;;21.58;31.05
80699;BME280;70062;51.658;5.658;2024-01-27T04:54:47;103351.39;;;21.74;30.87
80699;BME280;70062;51.658;5.658;2024-01-27T04:57:13;103354.73;;;21.83;30.72
80699;BME280;70062;51.658;5.658;2024-01-27T04:59:38;103358.77;;;21.83;30.53
80699;BME280;70062;51.658;5.658;2024-01-27T05:02:03;103362.56;;;21.78;30.52
80699;BME280;70062;51.658;5.658;2024-01-27T05:04:29;103363.33;;;21.67;30.59
80699;BME280;70062;51.658;5.658;2024-01-27T05:06:54;103363.07;;;21.46;30.75
80699;BME280;70062;51.658;5.658;2024-01-27T05:09:20;103362.35;;;21.22;31.13
80699;BME280;70062;51.658;5.658;2024-01-27T05:11:45;103360.10;;;21.26;31.42
80699;BME280;70062;51.658;5.658;2024-01-27T05:14:11;103358.45;;;21.48;31.06
80699;BME280;70062;51.658;5.658;2024-01-27T05:16:36;103360.90;;;21.64;30.88
80699;BME280;70062;51.658;5.658;2024-01-27T05:19:02;103358.60;;;21.71;30.84
80699;BME280;70062;51.658;5.658;2024-01-27T05:21:28;103356.55;;;21.72;30.70
80699;BME280;70062;51.658;5.658;2024-01-27T05:23:53;103354.87;;;21.66;30.67
80699;BME280;70062;51.658;5.658;2024-01-27T05:26:20;103351.14;;;21.52;30.83
80699;BME280;70062;51.658;5.658;2024-01-27T05:28:45;103348.65;;;21.28;30.94
80699;BME280;70062;51.658;5.658;2024-01-27T05:31:10;103357.19;;;21.13;31.30
80699;BME280;70062;51.658;5.658;2024-01-27T05:33:36;103358.87;;;21.30;31.37
80699;BME280;70062;51.658;5.658;2024-01-27T05:36:02;103356.94;;;21.77;31.18
80699;BME280;70062;51.658;5.658;2024-01-27T05:38:27;103347.58;;;22.37;30.63
80699;BME280;70062;51.658;5.658;2024-01-27T05:40:55;103341.61;;;22.94;29.83
80699;BME280;70062;51.658;5.658;2024-01-27T05:43:20;103337.92;;;23.31;29.18
80699;BME280;70062;51.658;5.658;2024-01-27T05:45:46;103336.98;;;23.53;28.68
80699;BME280;70062;51.658;5.658;2024-01-27T05:48:12;103336.61;;;23.62;28.38
80699;BME280;70062;51.658;5.658;2024-01-27T05:50:40;103332.73;;;23.61;28.21
80699;BME280;70062;51.658;5.658;2024-01-27T05:53:05;103331.38;;;23.53;28.20
80699;BME280;70062;51.658;5.658;2024-01-27T05:55:31;103325.56;;;23.38;28.18
80699;BME280;70062;51.658;5.658;2024-01-27T05:57:56;103329.04;;;23.18;28.44
80699;BME280;70062;51.658;5.658;2024-01-27T06:00:22;103336.68;;;22.84;28.52
80699;BME280;70062;51.658;5.658;2024-01-27T06:02:48;103335.70;;;22.55;28.80
80699;BME280;70062;51.658;5.658;2024-01-27T06:05:13;103337.91;;;22.57;28.99
80699;BME280;70062;51.658;5.658;2024-01-27T06:07:39;103335.91;;;22.69;29.08
80699;BME280;70062;51.658;5.658;2024-01-27T06:10:09;103342.63;;;22.79;28.94
80699;BME280;70062;51.658;5.658;2024-01-27T06:12:35;103342.20;;;22.78;28.78
80699;BME280;70062;51.658;5.658;2024-01-27T06:15:01;103337.64;;;22.68;28.77
80699;BME280;70062;51.658;5.658;2024-01-27T06:17:26;103343.93;;;22.55;28.84
80699;BME280;70062;51.658;5.658;2024-01-27T06:19:56;103339.88;;;22.29;29.06
80699;BME280;70062;51.658;5.658;2024-01-27T06:22:27;103342.45;;;22.02;29.51
80699;BME280;70062;51.658;5.658;2024-01-27T06:24:55;103340.91;;;21.87;29.68
80699;BME280;70062;51.658;5.658;2024-01-27T06:27:23;103345.55;;;21.72;30.01
80699;BME280;70062;51.658;5.658;2024-01-27T06:29:51;103355.07;;;21.54;30.03
80699;BME280;70062;51.658;5.658;2024-01-27T06:32:19;103349.36;;;21.36;30.24
80699;BME280;70062;51.658;5.658;2024-01-27T06:34:49;103357.66;;;21.15;30.70
80699;BME280;70062;51.658;5.658;2024-01-27T06:37:17;103356.48;;;21.16;31.04
80699;BME280;70062;51.658;5.658;2024-01-27T06:39:45;103355.05;;;21.62;30.93
80699;BME280;70062;51.658;5.658;2024-01-27T06:42:13;103351.60;;;22.29;30.30
80699;BME280;70062;51.658;5.658;2024-01-27T06:44:41;103342.68;;;23.04;29.58
80699;BME280;70062;51.658;5.658;2024-01-27T06:47:11;103342.65;;;23.70;28.61
80699;BME280;70062;51.658;5.658;2024-01-27T06:49:43;103347.41;;;24.16;27.95
80699;BME280;70062;51.658;5.658;2024-01-27T06:52:14;103343.58;;;24.43;27.32
80699;BME280;70062;51.658;5.658;2024-01-27T06:54:45;103342.30;;;24.52;26.96
80699;BME280;70062;51.658;5.658;2024-01-27T06:57:24;103345.82;;;24.53;26.87
80699;BME280;70062;51.658;5.658;2024-01-27T06:59:58;103348.81;;;24.42;26.87
80699;BME280;70062;51.658;5.658;2024-01-27T07:02:30;103353.30;;;24.25;26.80
80699;BME280;70062;51.658;5.658;2024-01-27T07:05:02;103354.28;;;24.02;26.79
80699;BME280;70062;51.658;5.658;2024-01-27T07:07:32;103363.29;;;23.78;27.03
80699;BME280;70062;51.658;5.658;2024-01-27T07:10:02;103362.67;;;23.51;27.40
80699;BME280;70062;51.658;5.658;2024-01-27T07:12:34;103375.68;;;23.23;27.50
80699;BME280;70062;51.658;5.658;2024-01-27T07:15:04;103383.15;;;22.94;27.78
80699;BME280;70062;51.658;5.658;2024-01-27T07:17:35;103385.53;;;22.62;28.25
80699;BME280;70062;51.658;5.658;2024-01-27T07:20:05;103395.73;;;22.34;28.54
80699;BME280;70062;51.658;5.658;2024-01-27T07:22:36;103396.77;;;22.04;28.99
80699;BME280;70062;51.658;5.658;2024-01-27T07:25:07;103400.40;;;21.75;29.20
80699;BME280;70062;51.658;5.658;2024-01-27T07:27:41;103398.38;;;21.46;29.49
80699;BME280;70062;51.658;5.658;2024-01-27T07:30:12;103404.91;;;21.17;29.87
80699;BME280;70062;51.658;5.658;2024-01-27T07:32:43;103400.02;;;20.88;30.46
80699;BME280;70062;51.658;5.658;2024-01-27T07:35:17;103408.45;;;20.64;30.71
80699;BME280;70062;51.658;5.658;2024-01-27T07:37:47;103407.56;;;20.39;31.18
80699;BME280;70062;51.658;5.658;2024-01-27T07:40:18;103409.29;;;20.14;31.46
80699;BME280;70062;51.658;5.658;2024-01-27T07:42:49;103408.60;;;19.91;31.89
80699;BME280;70062;51.658;5.658;2024-01-27T07:45:19;103415.19;;;19.70;32.15
80699;BME280;70062;51.658;5.658;2024-01-27T07:47:51;103420.98;;;19.45;32.58
80699;BME280;70062;51.658;5.658;2024-01-27T07:50:22;103424.63;;;19.23;33.01
80699;BME280;70062;51.658;5.658;2024-01-27T07:52:52;103419.10;;;19.14;33.52
80699;BME280;70062;51.658;5.658;2024-01-27T07:55:22;103416.89;;;19.44;33.66
80699;BME280;70062;51.658;5.658;2024-01-27T07:57:53;103415.52;;;20.04;33.30
80699;BME280;70062;51.658;5.658;2024-01-27T08:00:28;103409.14;;;20.71;32.34
80699;BME280;70062;51.658;5.658;2024-01-27T08:03:00;103413.38;;;21.23;31.49
80699;BME280;70062;51.658;5.658;2024-01-27T08:05:32;103416.46;;;21.59;30.88
80699;BME280;70062;51.658;5.658;2024-01-27T08:08:03;103413.01;;;21.80;30.45
80699;BME280;70062;51.658;5.658;2024-01-27T08:10:36;103410.64;;;21.90;30.21
80699;BME280;70062;51.658;5.658;2024-01-27T08:13:13;103414.17;;;21.91;29.97
80699;BME280;70062;51.658;5.658;2024-01-27T08:15:46;103411.93;;;21.83;29.95
80699;BME280;70062;51.658;5.658;2024-01-27T08:18:19;103421.96;;;21.73;29.97
80699;BME280;70062;51.658;5.658;2024-01-27T08:20:51;103415.14;;;21.57;30.13
80699;BME280;70062;51.658;5.658;2024-01-27T08:23:24;103418.54;;;21.39;30.41
80699;BME280;70062;51.658;5.658;2024-01-27T08:25:56;103421.10;;;21.20;30.40
80699;BME280;70062;51.658;5.658;2024-01-27T08:28:28;103419.45;;;21.00;30.83
80699;BME280;70062;51.658;5.658;2024-01-27T08:31:03;103424.50;;;20.78;30.97
80699;BME280;70062;51.658;5.658;2024-01-27T08:33:40;103421.14;;;20.56;31.15
80699;BME280;70062;51.658;5.658;2024-01-27T08:36:18;103421.36;;;20.33;31.55
80699;BME280;70062;51.658;5.658;2024-01-27T08:38:52;103415.05;;;20.01;31.92
80699;BME280;70062;51.658;5.658;2024-01-27T08:41:25;103410.73;;;19.85;32.46
80699;BME280;70062;51.658;5.658;2024-01-27T08:43:57;103415.86;;;20.07;32.59
80699;BME280;70062;51.658;5.658;2024-01-27T08:46:29;103414.70;;;20.60;32.37
80699;BME280;70062;51.658;5.658;2024-01-27T08:49:02;103407.14;;;21.20;31.61
80699;BME280;70062;51.658;5.658;2024-01-27T08:51:34;103414.00;;;21.67;30.96
80699;BME280;70062;51.658;5.658;2024-01-27T08:54:07;103413.23;;;21.97;30.36
80699;BME280;70062;51.658;5.658;2024-01-27T08:56:43;103406.83;;;22.14;29.95
80699;BME280;70062;51.658;5.658;2024-01-27T08:59:16;103404.27;;;22.20;29.81
80699;BME280;70062;51.658;5.658;2024-01-27T09:01:49;103404.33;;;22.17;29.59
80699;BME280;70062;51.658;5.658;2024-01-27T09:04:24;103406.92;;;22.08;29.57
80699;BME280;70062;51.658;5.658;2024-01-27T09:07:01;103412.77;;;21.94;29.71
80699;BME280;70062;51.658;5.658;2024-01-27T09:09:44;103415.00;;;21.78;29.74
80699;BME280;70062;51.658;5.658;2024-01-27T09:12:17;103420.94;;;21.58;29.87
80699;BME280;70062;51.658;5.658;2024-01-27T09:14:50;103425.73;;;21.36;30.24
80699;BME280;70062;51.658;5.658;2024-01-27T09:17:28;103427.06;;;21.09;30.33
80699;BME280;70062;51.658;5.658;2024-01-27T09:20:00;103434.56;;;20.77;30.78
80699;BME280;70062;51.658;5.658;2024-01-27T09:22:33;103445.78;;;20.67;31.27
80699;BME280;70062;51.658;5.658;2024-01-27T09:25:09;103444.35;;;20.84;31.28
80699;BME280;70062;51.658;5.658;2024-01-27T09:27:44;103448.10;;;21.00;31.05
80699;BME280;70062;51.658;5.658;2024-01-27T09:30:16;103449.69;;;21.07;30.87
80699;BME280;70062;51.658;5.658;2024-01-27T09:32:48;103448.49;;;21.08;30.85
80699;BME280;70062;51.658;5.658;2024-01-27T09:35:21;103456.45;;;21.03;30.92
80699;BME280;70062;51.658;5.658;2024-01-27T09:38:07;103449.36;;;20.90;30.97
80699;BME280;70062;51.658;5.658;2024-01-27T09:40:57;103456.13;;;20.78;31.15
80699;BME280;70062;51.658;5.658;2024-01-27T09:43:30;103459.22;;;20.60;31.25
80699;BME280;70062;51.658;5.658;2024-01-27T09:46:04;103457.88;;;20.33;31.50
80699;BME280;70062;51.658;5.658;2024-01-27T09:48:40;103462.14;;;20.15;31.96
80699;BME280;70062;51.658;5.658;2024-01-27T09:51:12;103467.55;;;20.29;32.23
80699;BME280;70062;51.658;5.658;2024-01-27T09:53:45;103472.10;;;20.53;31.93
80699;BME280;70062;51.658;5.658;2024-01-27T09:56:17;103478.33;;;20.69;31.78
80699;BME280;70062;51.658;5.658;2024-01-27T09:59:01;103480.73;;;20.75;31.50
80699;BME280;70062;51.658;5.658;2024-01-27T10:01:33;103485.71;;;20.77;31.43
80699;BME280;70062;51.658;5.658;2024-01-27T10:04:07;103485.95;;;20.71;31.40
80699;BME280;70062;51.658;5.658;2024-01-27T10:06:40;103493.19;;;20.62;31.50
80699;BME280;70062;51.658;5.658;2024-01-27T10:09:12;103491.29;;;20.49;31.61
80699;BME280;70062;51.658;5.658;2024-01-27T10:11:47;103487.62;;;20.32;31.73
80699;BME280;70062;51.658;5.658;2024-01-27T10:14:18;103488.02;;;20.06;32.06
80699;BME280;70062;51.658;5.658;2024-01-27T10:16:50;103486.10;;;19.96;32.52
80699;BME280;70062;51.658;5.658;2024-01-27T10:19:21;103480.05;;;20.24;32.40
80699;BME280;70062;51.658;5.658;2024-01-27T10:21:59;103482.58;;;20.77;31.45
80699;BME280;70062;51.658;5.658;2024-01-27T10:24:28;103478.03;;;21.41;31.19
80699;BME280;70062;51.658;5.658;2024-01-27T10:27:02;103474.50;;;21.90;30.48
80699;BME280;70062;51.658;5.658;2024-01-27T10:29:35;103475.77;;;22.27;30.08
80699;BME280;70062;51.658;5.658;2024-01-27T10:32:11;103478.98;;;22.49;29.79
80699;BME280;70062;51.658;5.658;2024-01-27T10:34:43;103482.19;;;22.58;29.67
80699;BME280;70062;51.658;5.658;2024-01-27T10:37:16;103486.41;;;22.58;29.39
80699;BME280;70062;51.658;5.658;2024-01-27T10:39:48;103491.05;;;22.53;29.43
80699;BME280;70062;51.658;5.658;2024-01-27T10:42:21;103492.83;;;22.41;29.40
80699;BME280;70062;51.658;5.658;2024-01-27T10:45:02;103489.30;;;22.24;29.53
80699;BME280;70062;51.658;5.658;2024-01-27T10:47:33;103491.86;;;22.07;29.87
80699;BME280;70062;51.658;5.658;2024-01-27T10:50:09;103489.64;;;21.77;30.07
80699;BME280;70062;51.658;5.658;2024-01-27T10:52:42;103489.73;;;21.49;30.46
80699;BME280;70062;51.658;5.658;2024-01-27T10:55:14;103490.09;;;21.53;30.86
80699;BME280;70062;51.658;5.658;2024-01-27T10:57:47;103488.17;;;21.68;30.76
80699;BME280;70062;51.658;5.658;2024-01-27T11:00:20;103479.41;;;21.79;30.62
80699;BME280;70062;51.658;5.658;2024-01-27T11:02:54;103476.39;;;21.82;30.66
80699;BME280;70062;51.658;5.658;2024-01-27T11:05:29;103476.26;;;21.79;30.55
80699;BME280;70062;51.658;5.658;2024-01-27T11:08:02;103472.22;;;21.71;30.64
80699;BME280;70062;51.658;5.658;2024-01-27T11:10:34;103469.22;;;21.59;30.57
80699;BME280;70062;51.658;5.658;2024-01-27T11:13:07;103467.38;;;21.33;30.98
80699;BME280;70062;51.658;5.658;2024-01-27T11:15:50;103468.13;;;21.17;31.31
80699;BME280;70062;51.658;5.658;2024-01-27T11:18:21;103462.69;;;21.31;31.38
80699;BME280;70062;51.658;5.658;2024-01-27T11:21:00;103464.14;;;21.54;31.17
80699;BME280;70062;51.658;5.658;2024-01-27T11:23:37;103460.81;;;21.70;31.14
80699;BME280;70062;51.658;5.658;2024-01-27T11:26:11;103458.84;;;21.76;30.87
80699;BME280;70062;51.658;5.658;2024-01-27T11:28:50;103452.11;;;21.75;30.84
80699;BME280;70062;51.658;5.658;2024-01-27T11:31:22;103449.66;;;21.70;31.11
80699;BME280;70062;51.658;5.658;2024-01-27T11:33:55;103449.56;;;21.57;31.10
80699;BME280;70062;51.658;5.658;2024-01-27T11:36:28;103458.27;;;21.37;31.46
80699;BME280;70062;51.658;5.658;2024-01-27T11:39:41;103454.29;;;21.23;31.84
80699;BME280;70062;51.658;5.658;2024-01-27T11:42:38;103451.84;;;21.49;31.71
80699;BME280;70062;51.658;5.658;2024-01-27T11:45:11;103448.40;;;21.70;31.66
80699;BME280;70062;51.658;5.658;2024-01-27T11:47:45;103446.96;;;21.80;31.48
80699;BME280;70062;51.658;5.658;2024-01-27T11:50:35;103442.02;;;21.84;31.18
80699;BME280;70062;51.658;5.658;2024-01-27T11:56:21;103436.40;;;21.56;31.50
80699;BME280;70062;51.658;5.658;2024-01-27T11:59:26;103432.88;;;21.47;31.78
80699;BME280;70062;51.658;5.658;2024-01-27T12:02:57;103429.06;;;21.95;31.99
80699;BME280;70062;51.658;5.658;2024-01-27T12:06:08;103421.35;;;22.78;31.27
80699;BME280;70062;51.658;5.658;2024-01-27T12:09:16;103414.77;;;23.38;30.53
80699;BME280;70062;51.658;5.658;2024-01-27T12:12:45;103418.48;;;23.81;29.73
80699;BME280;70062;51.658;5.658;2024-01-27T12:15:19;103421.65;;;23.96;29.41
80699;BME280;70062;51.658;5.658;2024-01-27T12:18:06;103413.97;;;23.92;29.29
80699;BME280;70062;51.658;5.658;2024-01-27T12:20:42;103424.60;;;23.90;29.23
80699;BME280;70062;51.658;5.658;2024-01-27T12:23:15;103422.73;;;23.77;29.25
80699;BME280;70062;51.658;5.658;2024-01-27T12:26:04;103428.30;;;23.57;29.49
80699;BME280;70062;51.658;5.658;2024-01-27T12:28:40;103430.38;;;23.19;29.77
80699;BME280;70062;51.658;5.658;2024-01-27T12:31:20;103422.57;;;22.98;30.26
80699;BME280;70062;51.658;5.658;2024-01-27T12:34:11;103424.17;;;23.08;30.27
80699;BME280;70062;51.658;5.658;2024-01-27T12:36:44;103421.58;;;23.19;30.20
80699;BME280;70062;51.658;5.658;2024-01-27T12:39:14;103428.00;;;23.21;30.27
80699;BME280;70062;51.658;5.658;2024-01-27T12:41:43;103426.06;;;23.17;30.24
80699;BME280;70062;51.658;5.658;2024-01-27T12:44:09;103426.90;;;23.06;30.16
80699;BME280;70062;51.658;5.658;2024-01-27T12:46:41;103429.44;;;22.82;30.30
80699;BME280;70062;51.658;5.658;2024-01-27T12:49:13;103426.52;;;22.67;30.67
80699;BME280;70062;51.658;5.658;2024-01-27T12:51:46;103417.65;;;22.94;30.76
80699;BME280;70062;51.658;5.658;2024-01-27T12:54:20;103418.71;;;23.49;30.33
80699;BME280;70062;51.658;5.658;2024-01-27T12:56:53;103419.66;;;24.15;29.58
80699;BME280;70062;51.658;5.658;2024-01-27T12:59:26;103419.27;;;24.77;28.89
80699;BME280;70062;51.658;5.658;2024-01-27T13:02:00;103417.62;;;25.19;28.11
80699;BME280;70062;51.658;5.658;2024-01-27T13:04:35;103416.02;;;25.43;27.69
80699;BME280;70062;51.658;5.658;2024-01-27T13:07:08;103413.56;;;25.49;27.32
80699;BME280;70062;51.658;5.658;2024-01-27T13:09:42;103413.24;;;25.44;27.08
80699;BME280;70062;51.658;5.658;2024-01-27T13:12:15;103403.52;;;25.30;27.08